createdAt,value
2023-12-14T00:01:09.893Z,1006.73
2023-12-14T00:05:09.173Z,1006.94
2023-12-14T00:10:08.434Z,1007.01
2023-12-14T00:15:08.664Z,1007.14
2023-12-14T00:20:08.958Z,1007.18
2023-12-14T00:25:08.196Z,1007.18
2023-12-14T00:30:08.447Z,1007.18
2023-12-14T00:35:08.594Z,1007.18
2023-12-14T00:40:08.882Z,1007.72
2023-12-14T00:45:09.163Z,1007.73
2023-12-14T00:50:08.401Z,1007.82
2023-12-14T00:55:08.706Z,1007.93
2023-12-14T01:00:08.885Z,1008.02
2023-12-14T01:05:08.725Z,1008.03
2023-12-14T01:10:09.073Z,1008.15
2023-12-14T01:15:08.292Z,1008.31
2023-12-14T01:20:08.650Z,1008.42
2023-12-14T01:25:08.946Z,1008.52
2023-12-14T01:30:08.088Z,1008.61
2023-12-14T01:35:08.247Z,1008.73
2023-12-14T01:40:08.374Z,1008.98
2023-12-14T01:45:08.550Z,1008.99
2023-12-14T01:50:10.201Z,1009.1
2023-12-14T01:55:08.440Z,1009.09
2023-12-14T02:00:08.676Z,1009.15
2023-12-14T02:05:08.255Z,1009.15
2023-12-14T02:10:08.522Z,1009.15
2023-12-14T02:15:08.640Z,1009.33
2023-12-14T02:20:08.904Z,1009.52
2023-12-14T02:25:08.173Z,1009.55
2023-12-14T02:30:08.383Z,1009.67
2023-12-14T02:35:08.689Z,1009.67
2023-12-14T02:40:08.912Z,1009.81
2023-12-14T02:45:09.114Z,1009.84
2023-12-14T02:50:08.294Z,1009.95
2023-12-14T02:55:08.490Z,1010.01
2023-12-14T03:00:08.656Z,1010.01
2023-12-14T03:05:10.835Z,1010.14
2023-12-14T03:10:08.304Z,1010.2
2023-12-14T03:15:09.991Z,1010.33
2023-12-14T03:20:08.183Z,1010.4
2023-12-14T03:25:08.386Z,1010.45
2023-12-14T03:30:08.665Z,1010.58
2023-12-14T03:35:08.926Z,1010.58
2023-12-14T03:40:08.164Z,1010.81
2023-12-14T03:45:08.433Z,1010.83
2023-12-14T03:50:08.757Z,1010.87
2023-12-14T03:55:08.904Z,1010.93
2023-12-14T04:00:09.129Z,1011.05
2023-12-14T04:05:08.371Z,1011.05
2023-12-14T04:10:08.571Z,1011.11
2023-12-14T04:15:08.737Z,1011.28
2023-12-14T04:20:09.215Z,1011.19
2023-12-14T04:25:08.570Z,1011.29
2023-12-14T04:30:08.810Z,1011.42
2023-12-14T04:35:09.076Z,1011.36
2023-12-14T04:40:02.485Z,1011.43
2023-12-14T04:45:02.729Z,1011.5
2023-12-14T04:50:03.057Z,1011.62
2023-12-14T04:55:02.331Z,1011.57
2023-12-14T05:00:02.698Z,1011.76
2023-12-14T05:05:03.095Z,1011.72
2023-12-14T05:10:02.418Z,1011.87
2023-12-14T05:15:02.698Z,1011.84
2023-12-14T05:20:03.057Z,1011.91
2023-12-14T05:25:02.466Z,1012.03
2023-12-14T05:30:02.707Z,1012.2
2023-12-14T05:35:03.069Z,1012.39
2023-12-14T05:40:02.466Z,1012.53
2023-12-14T05:45:02.737Z,1012.63
2023-12-14T05:50:03.278Z,1012.74
2023-12-14T05:55:04.914Z,1012.78
2023-12-14T06:00:02.580Z,1012.78
2023-12-14T06:05:02.991Z,1013.08
2023-12-14T06:10:02.447Z,1013.16
2023-12-14T06:15:02.760Z,1013.13
2023-12-14T06:20:03.120Z,1013.13
2023-12-14T06:25:02.582Z,1013.41
2023-12-14T06:30:02.736Z,1013.55
2023-12-14T06:35:03.006Z,1013.67
2023-12-14T06:40:02.346Z,1013.67
2023-12-14T06:45:02.817Z,1013.87
2023-12-14T06:50:03.194Z,1014.05
2023-12-14T06:55:02.523Z,1014.05
2023-12-14T07:00:02.859Z,1014.11
2023-12-14T07:05:03.262Z,1014.11
2023-12-14T07:10:02.632Z,1014.11
2023-12-14T07:15:02.981Z,1014.23
2023-12-14T07:20:02.252Z,1014.23
2023-12-14T07:25:02.648Z,1014.28
2023-12-14T07:30:02.963Z,1014.38
2023-12-14T07:35:02.343Z,1014.48
2023-12-14T07:40:02.626Z,1014.56
2023-12-14T07:45:02.987Z,1014.66
2023-12-14T07:50:02.373Z,1014.72
2023-12-14T07:55:02.667Z,1014.82
2023-12-14T08:00:03.005Z,1015.03
2023-12-14T08:05:02.356Z,1015.21
2023-12-14T08:10:02.676Z,1015.26
2023-12-14T08:15:02.916Z,1015.52
2023-12-14T08:20:02.271Z,1015.52
2023-12-14T08:25:02.603Z,1015.64
2023-12-14T08:30:02.889Z,1015.75
2023-12-14T08:35:03.384Z,1015.93
2023-12-14T08:40:02.741Z,1015.96
2023-12-14T08:45:03.133Z,1015.96
2023-12-14T08:50:02.632Z,1015.96
2023-12-14T08:55:03.276Z,1016.31
2023-12-14T09:00:02.732Z,1016.31
2023-12-14T09:05:03.196Z,1016.29
2023-12-14T09:10:02.630Z,1016.37
2023-12-14T09:15:03.003Z,1016.4
2023-12-14T09:20:02.299Z,1016.4
2023-12-14T09:25:02.568Z,1016.61
2023-12-14T09:30:02.968Z,1016.62
2023-12-14T09:35:02.363Z,1016.63
2023-12-14T09:40:02.707Z,1016.68
2023-12-14T09:45:03.182Z,1016.7
2023-12-14T09:50:02.433Z,1016.82
2023-12-14T09:55:02.747Z,1017.0
2023-12-14T10:00:03.353Z,1017.18
2023-12-14T10:05:02.788Z,1017.2
2023-12-14T10:10:03.106Z,1017.33
2023-12-14T10:15:02.499Z,1017.33
2023-12-14T10:20:02.900Z,1017.33
2023-12-14T10:25:03.340Z,1017.33
2023-12-14T10:30:02.618Z,1017.51
2023-12-14T10:35:03.093Z,1017.58
2023-12-14T10:40:02.583Z,1017.61
2023-12-14T10:50:02.288Z,1017.74
2023-12-14T10:55:02.603Z,1017.84
2023-12-14T11:00:02.972Z,1017.84
2023-12-14T11:05:02.466Z,1017.9
2023-12-14T11:10:02.915Z,1018.05
2023-12-14T11:15:03.253Z,1018.0
2023-12-14T11:20:02.704Z,1018.1
2023-12-14T11:25:02.992Z,1018.09
2023-12-14T11:30:02.293Z,1018.17
2023-12-14T11:35:02.598Z,1018.21
2023-12-14T11:40:02.918Z,1018.32
2023-12-14T11:45:03.252Z,1018.48
2023-12-14T11:50:02.727Z,1018.48
2023-12-14T11:55:03.126Z,1018.29
2023-12-14T12:00:02.460Z,1018.4
2023-12-14T12:05:03.214Z,1018.45
2023-12-14T12:10:02.634Z,1018.45
2023-12-14T12:15:02.996Z,1018.53
2023-12-14T12:20:02.645Z,1018.62
2023-12-14T12:25:12.022Z,1018.6
2023-12-14T12:30:02.831Z,1018.52
2023-12-14T12:35:03.245Z,1018.61
2023-12-14T12:40:02.583Z,1018.61
2023-12-14T12:45:02.864Z,1018.61
2023-12-14T12:50:03.269Z,1018.61
2023-12-14T12:55:02.630Z,1018.93
2023-12-14T13:00:02.946Z,1018.88
2023-12-14T13:05:02.402Z,1018.93
2023-12-14T13:10:08.203Z,1018.98
2023-12-14T13:15:02.266Z,1018.98
2023-12-14T13:20:02.610Z,1018.98
2023-12-14T13:25:02.981Z,1019.08
2023-12-14T13:30:02.277Z,1019.06
2023-12-14T13:35:02.694Z,1019.2
2023-12-14T13:40:03.260Z,1019.33
2023-12-14T13:45:02.486Z,1019.41
2023-12-14T13:50:02.701Z,1019.66
2023-12-14T13:55:03.076Z,1019.64
2023-12-14T14:00:02.497Z,1019.64
2023-12-14T14:05:03.019Z,1019.75
2023-12-14T14:10:02.335Z,1019.75
2023-12-14T14:15:02.562Z,1019.91
2023-12-14T14:20:02.940Z,1019.93
2023-12-14T14:25:02.271Z,1019.96
2023-12-14T14:30:02.590Z,1020.09
2023-12-14T14:35:02.976Z,1020.19
2023-12-14T14:40:02.372Z,1020.19
2023-12-14T14:45:02.678Z,1020.29
2023-12-14T14:50:02.982Z,1020.42
2023-12-14T14:55:02.223Z,1020.57
2023-12-14T15:00:02.522Z,1020.57
2023-12-14T15:05:02.862Z,1020.52
2023-12-14T15:10:03.129Z,1020.68
2023-12-14T15:15:02.341Z,1020.68
2023-12-14T15:20:02.718Z,1020.78
2023-12-14T15:25:03.099Z,1020.99
2023-12-14T15:30:02.417Z,1021.07
2023-12-14T15:35:02.793Z,1021.12
2023-12-14T15:40:03.006Z,1021.2
2023-12-14T15:45:02.555Z,1021.2
2023-12-14T15:50:02.890Z,1021.31
2023-12-14T15:55:02.172Z,1021.39
2023-12-14T16:00:02.465Z,1021.49
2023-12-14T16:05:03.026Z,1021.49
2023-12-14T16:10:02.499Z,1021.55
2023-12-14T16:15:02.748Z,1021.64
2023-12-14T16:20:03.189Z,1021.77
2023-12-14T16:25:02.550Z,1021.77
2023-12-14T16:30:02.906Z,1021.89
2023-12-14T16:35:03.347Z,1021.98
2023-12-14T16:40:02.786Z,1022.07
2023-12-14T16:45:03.117Z,1022.07
2023-12-14T16:50:02.509Z,1022.11
2023-12-14T16:55:03.348Z,1022.17
2023-12-14T17:00:02.717Z,1022.19
2023-12-14T17:05:04.224Z,1022.16
2023-12-14T17:10:02.870Z,1022.27
2023-12-14T17:15:03.150Z,1022.34
2023-12-14T17:20:02.482Z,1022.4
2023-12-14T17:25:05.313Z,1022.46
2023-12-14T17:30:02.598Z,1022.57
2023-12-14T17:35:02.935Z,1022.59
2023-12-14T17:40:02.374Z,1022.68
2023-12-14T17:45:02.642Z,1022.75
2023-12-14T17:50:02.868Z,1022.78
2023-12-14T17:55:05.180Z,1022.86
2023-12-14T18:00:02.770Z,1022.86
2023-12-14T18:05:03.083Z,1022.86
2023-12-14T18:10:02.384Z,1023.12
2023-12-14T18:15:02.737Z,1023.08
2023-12-14T18:20:02.997Z,1023.08
2023-12-14T18:25:02.306Z,1023.09
2023-12-14T18:30:02.560Z,1023.07
2023-12-14T18:35:02.861Z,1023.12
2023-12-14T18:40:03.122Z,1023.12
2023-12-14T18:45:02.430Z,1023.12
2023-12-14T18:50:02.758Z,1023.25
2023-12-14T18:55:03.091Z,1023.25
2023-12-14T19:00:02.406Z,1023.34
2023-12-14T19:05:02.809Z,1023.45
2023-12-14T19:10:06.284Z,1023.45
2023-12-14T19:15:03.083Z,1023.61
2023-12-14T19:20:02.558Z,1023.65
2023-12-14T19:25:02.894Z,1023.68
2023-12-14T19:30:03.212Z,1023.81
2023-12-14T19:35:02.511Z,1023.91
2023-12-14T19:40:02.925Z,1023.91
2023-12-14T19:45:02.371Z,1024.01
2023-12-14T19:50:02.662Z,1024.08
2023-12-14T19:55:03.014Z,1024.13
2023-12-14T20:00:02.159Z,1024.13
2023-12-14T20:05:02.542Z,1024.09
2023-12-14T20:10:04.321Z,1024.17
2023-12-14T20:15:03.099Z,1024.19
2023-12-14T20:20:02.529Z,1024.24
2023-12-14T20:25:02.844Z,1024.36
2023-12-14T20:30:03.194Z,1024.4
2023-12-14T20:35:02.536Z,1024.45
2023-12-14T20:40:11.650Z,1024.44
2023-12-14T20:45:02.886Z,1024.56
2023-12-14T20:50:03.221Z,1024.63
2023-12-14T20:55:02.570Z,1024.7
2023-12-14T21:00:02.874Z,1024.66
2023-12-14T21:05:03.166Z,1024.71
2023-12-14T21:10:02.350Z,1024.71
2023-12-14T21:15:02.584Z,1024.76
2023-12-14T21:20:02.873Z,1024.84
2023-12-14T21:25:03.233Z,1024.73
2023-12-14T21:30:02.484Z,1024.86
2023-12-14T21:35:02.821Z,1024.88
2023-12-14T21:40:03.125Z,1024.98
2023-12-14T21:45:02.277Z,1024.93
2023-12-14T21:50:02.709Z,1024.99
2023-12-14T21:55:03.020Z,1025.05
2023-12-14T22:00:02.373Z,1025.06
2023-12-14T22:05:02.829Z,1025.06
2023-12-14T22:10:03.132Z,1025.0
2023-12-14T22:15:02.538Z,1024.94
2023-12-14T22:20:02.929Z,1024.96
2023-12-14T22:25:04.462Z,1024.96
2023-12-14T22:30:02.740Z,1025.08
2023-12-14T22:35:03.208Z,1025.2
2023-12-14T22:40:02.531Z,1025.23
2023-12-14T22:45:02.882Z,1025.23
2023-12-14T22:50:03.266Z,1025.41
2023-12-14T22:55:02.652Z,1025.38
2023-12-14T23:00:02.935Z,1025.39
2023-12-14T23:05:15.138Z,1025.38
2023-12-14T23:10:08.281Z,1025.5
2023-12-14T23:15:08.501Z,1025.55
2023-12-14T23:20:08.807Z,1025.51
2023-12-14T23:25:08.975Z,1025.51
2023-12-14T23:30:08.227Z,1025.66
2023-12-14T23:35:08.409Z,1025.76
2023-12-14T23:40:08.603Z,1025.9
2023-12-14T23:45:08.759Z,1025.9
2023-12-14T23:50:09.051Z,1025.82
2023-12-14T23:55:08.240Z,1025.83
